Time;durP1;ratioP1;P1;durP2;ratioP2;P2;SDS_P1;SDS_P2;PMS_P1;PMS_P2;Temp;Humidity;BMP_temperature;BMP_pressure;BME280_temperature;BME280_humidity;BME280_pressure;Samples;Min_cycle;Max_cycle;Signal;HPM_P1;HPM_P2
2023/12/29 00:02:20;;;;;;;1999.90;999.90;;;9.80;99.90;;;;;;6287413;22;20019;-81
2023/12/29 00:04:46;;;;;;;1999.90;999.90;;;9.80;99.90;;;;;;6259968;22;20008;-81
2023/12/29 00:07:11;;;;;;;1999.90;999.90;;;9.80;99.90;;;;;;6293352;22;20004;-81
2023/12/29 00:09:40;;;;;;;1999.90;999.90;;;9.80;99.90;;;;;;6302898;22;20012;-81
2023/12/29 00:12:07;;;;;;;1999.90;999.90;;;9.80;99.90;;;;;;6298551;22;20016;-81
2023/12/29 00:14:33;;;;;;;1999.90;999.90;;;9.80;99.90;;;;;;6284245;22;20341;-81
2023/12/29 00:16:59;;;;;;;1999.90;999.90;;;9.80;99.90;;;;;;6284783;22;20011;-81
2023/12/29 00:19:25;;;;;;;1999.90;999.90;;;9.90;99.90;;;;;;6284498;22;20088;-81
2023/12/29 00:21:51;;;;;;;1999.90;999.90;;;9.90;99.90;;;;;;6257395;22;20012;-81
2023/12/29 00:24:17;;;;;;;1999.90;999.90;;;9.80;99.90;;;;;;6284065;22;20362;-81
2023/12/29 00:26:42;;;;;;;1999.90;999.90;;;9.80;99.90;;;;;;6284257;22;20000;-80
2023/12/29 00:29:08;;;;;;;1999.90;999.90;;;10.00;99.90;;;;;;6283975;22;20012;-81
2023/12/29 00:31:34;;;;;;;1999.90;999.90;;;9.80;99.90;;;;;;6282730;22;20090;-81
2023/12/29 00:33:59;;;;;;;1999.90;999.90;;;9.80;99.90;;;;;;6281700;22;20012;-81
2023/12/29 00:36:25;;;;;;;1999.90;999.90;;;9.80;99.90;;;;;;6266281;22;20012;-81
2023/12/29 00:38:51;;;;;;;1999.90;999.90;;;9.80;99.90;;;;;;6286877;22;20075;-81
2023/12/29 00:41:16;;;;;;;1999.90;999.90;;;10.00;99.90;;;;;;6286545;22;20035;-81
2023/12/29 00:43:42;;;;;;;1999.90;999.90;;;9.80;99.90;;;;;;6258913;22;20035;-81
2023/12/29 00:46:11;;;;;;;1999.90;999.90;;;9.80;99.90;;;;;;6286451;22;20004;-81
2023/12/29 00:48:36;;;;;;;1999.90;999.90;;;9.70;99.90;;;;;;6257689;22;20012;-81
2023/12/29 00:51:03;;;;;;;1999.90;999.90;;;9.80;99.90;;;;;;6258368;22;20008;-81
2023/12/29 00:53:29;;;;;;;1999.90;999.90;;;9.70;99.90;;;;;;6257207;22;20667;-80
2023/12/29 00:55:54;;;;;;;1999.90;999.90;;;9.70;99.90;;;;;;6257428;22;20087;-81
2023/12/29 00:58:20;;;;;;;1999.90;999.90;;;9.70;99.90;;;;;;6285103;22;20031;-81
2023/12/29 01:00:46;;;;;;;1999.90;999.90;;;9.70;99.90;;;;;;6285401;22;20008;-81
2023/12/29 01:03:11;;;;;;;1999.90;999.90;;;9.70;99.90;;;;;;6284837;22;20001;-80
2023/12/29 01:05:37;;;;;;;1999.90;999.90;;;9.60;99.90;;;;;;6284910;22;20086;-80
2023/12/29 01:08:02;;;;;;;1999.90;999.90;;;9.50;99.90;;;;;;6257761;22;20794;-81
2023/12/29 01:10:28;;;;;;;1999.90;999.90;;;9.40;99.90;;;;;;6257511;22;20004;-80
2023/12/29 01:12:53;;;;;;;1999.90;999.90;;;9.40;99.90;;;;;;6256937;22;20431;-80
2023/12/29 01:15:19;;;;;;;1999.90;999.90;;;9.30;99.90;;;;;;6285410;22;20451;-80
2023/12/29 01:17:44;;;;;;;1999.90;999.90;;;9.20;99.90;;;;;;6285234;22;20379;-81
2023/12/29 01:20:10;;;;;;;1999.90;999.90;;;9.10;99.90;;;;;;6284933;22;20316;-81
2023/12/29 01:22:35;;;;;;;1999.90;999.90;;;9.10;99.90;;;;;;6257525;22;20578;-81
2023/12/29 01:25:01;;;;;;;1999.90;999.90;;;9.10;99.90;;;;;;6284550;22;20011;-81
2023/12/29 01:27:28;;;;;;;1999.90;999.90;;;9.00;99.90;;;;;;6283046;22;20035;-81
2023/12/29 01:29:54;;;;;;;1999.90;999.90;;;9.00;99.90;;;;;;6285124;22;20008;-81
2023/12/29 01:32:20;;;;;;;1999.90;999.90;;;9.00;99.90;;;;;;6285063;22;20012;-81
2023/12/29 01:34:46;;;;;;;1999.90;999.90;;;9.10;99.90;;;;;;6257932;22;20004;-81
2023/12/29 01:37:11;;;;;;;1999.90;999.90;;;9.10;99.90;;;;;;6284728;22;20340;-81
2023/12/29 01:39:37;;;;;;;1999.90;999.90;;;9.10;99.90;;;;;;6285185;22;20432;-81
2023/12/29 01:42:03;;;;;;;1999.90;999.90;;;9.20;99.90;;;;;;6257737;22;20443;-81
2023/12/29 01:44:29;;;;;;;1999.90;999.90;;;9.20;99.90;;;;;;6284843;22;20010;-81
2023/12/29 01:46:56;;;;;;;1999.90;999.90;;;9.20;99.90;;;;;;6258340;22;20175;-81
2023/12/29 01:49:22;;;;;;;1999.90;999.90;;;9.20;99.90;;;;;;6257605;22;20012;-81
2023/12/29 01:51:54;;;;;;;1999.90;999.90;;;9.20;99.90;;;;;;6285118;22;20012;-81
2023/12/29 01:54:21;;;;;;;1999.90;999.90;;;9.30;99.90;;;;;;6257418;22;20017;-81
2023/12/29 01:56:48;;;;;;;1999.90;999.90;;;9.20;99.90;;;;;;6257764;22;20431;-81
2023/12/29 01:59:14;;;;;;;1999.90;999.90;;;9.30;99.90;;;;;;6284785;22;20008;-81
2023/12/29 02:01:40;;;;;;;1999.90;999.90;;;9.20;99.90;;;;;;6286548;22;20005;-81
2023/12/29 02:04:07;;;;;;;1999.90;999.90;;;9.20;99.90;;;;;;6288377;22;20004;-81
2023/12/29 02:06:35;;;;;;;1999.90;999.90;;;9.20;99.90;;;;;;6297805;22;19988;-81
2023/12/29 02:09:03;;;;;;;1999.90;999.90;;;9.20;99.90;;;;;;6284906;22;20047;-81
2023/12/29 02:11:29;;;;;;;1999.90;999.90;;;9.20;99.90;;;;;;6256943;22;20486;-81
2023/12/29 02:13:54;;;;;;;1999.90;999.90;;;9.20;99.90;;;;;;6283793;22;20012;-81
2023/12/29 02:16:37;;;;;;;1999.90;999.90;;;9.20;99.90;;;;;;6257518;22;20008;-81
2023/12/29 02:19:11;;;;;;;1999.90;999.90;;;9.20;99.90;;;;;;6284434;22;20019;-81
2023/12/29 02:21:37;;;;;;;1999.90;999.90;;;9.30;99.90;;;;;;6284641;22;20004;-82
2023/12/29 02:24:02;;;;;;;1999.90;999.90;;;9.20;99.90;;;;;;6257057;22;20012;-81
2023/12/29 02:26:30;;;;;;;1999.90;999.90;;;9.20;99.90;;;;;;6284932;22;20000;-81
2023/12/29 02:29:01;;;;;;;1999.90;999.90;;;9.20;99.90;;;;;;6284668;22;20435;-81
2023/12/29 02:31:30;;;;;;;1999.90;999.90;;;9.30;99.90;;;;;;6284954;22;20498;-81
2023/12/29 02:33:56;;;;;;;1999.90;999.90;;;9.20;99.90;;;;;;6256203;22;20460;-81
2023/12/29 02:36:23;;;;;;;1999.90;999.90;;;9.30;99.90;;;;;;6257557;22;20008;-81
2023/12/29 02:38:49;;;;;;;1999.90;999.90;;;9.30;99.90;;;;;;6257045;22;20069;-81
2023/12/29 02:41:15;;;;;;;1999.90;999.90;;;9.30;99.90;;;;;;6283299;22;20051;-81
2023/12/29 02:43:40;;;;;;;1999.90;999.90;;;9.30;99.90;;;;;;6256969;22;20016;-81
2023/12/29 02:46:06;;;;;;;1999.90;999.90;;;9.40;99.90;;;;;;6284807;22;20083;-81
2023/12/29 02:48:31;;;;;;;1999.90;999.90;;;9.40;99.90;;;;;;6283125;22;20008;-81
2023/12/29 02:50:57;;;;;;;1999.90;999.90;;;9.30;99.90;;;;;;6257982;22;20024;-81
2023/12/29 02:53:22;;;;;;;1999.90;999.90;;;9.30;99.90;;;;;;6294076;22;20050;-77
2023/12/29 02:55:48;;;;;;;1999.90;999.90;;;9.40;99.90;;;;;;6285680;22;20020;-76
2023/12/29 02:58:13;;;;;;;1999.90;999.90;;;9.50;99.90;;;;;;6285388;22;20008;-77
2023/12/29 03:00:39;;;;;;;1999.90;999.90;;;9.40;99.90;;;;;;6313260;22;20008;-77
2023/12/29 03:03:05;;;;;;;1999.90;999.90;;;9.40;99.90;;;;;;6302198;22;20004;-76
2023/12/29 03:05:30;;;;;;;1999.90;999.90;;;9.40;99.90;;;;;;6283746;22;20039;-76
2023/12/29 03:07:57;;;;;;;1999.90;999.90;;;9.40;99.90;;;;;;6283643;22;20004;-77
2023/12/29 03:10:23;;;;;;;1999.90;999.90;;;9.50;99.90;;;;;;6281923;22;20016;-77
2023/12/29 03:12:49;;;;;;;1999.90;999.90;;;9.40;99.90;;;;;;6283110;22;20477;-77
2023/12/29 03:15:14;;;;;;;1999.90;999.90;;;9.50;99.90;;;;;;6283459;22;20004;-77
2023/12/29 03:17:40;;;;;;;1999.90;999.90;;;9.50;99.90;;;;;;6256113;22;20012;-77
2023/12/29 03:20:07;;;;;;;1999.90;999.90;;;9.50;99.90;;;;;;6283612;22;20008;-77
2023/12/29 03:22:33;;;;;;;1999.90;999.90;;;9.60;99.90;;;;;;6256027;22;20008;-77
2023/12/29 03:24:58;;;;;;;1999.90;999.90;;;9.60;99.90;;;;;;6283366;22;20014;-77
2023/12/29 03:27:24;;;;;;;1999.90;999.90;;;9.60;99.90;;;;;;6283522;22;20008;-76
2023/12/29 03:29:49;;;;;;;1999.90;999.90;;;9.70;99.90;;;;;;6283524;22;20115;-77
2023/12/29 03:32:15;;;;;;;1999.90;999.90;;;9.70;99.90;;;;;;6283102;22;20520;-77
2023/12/29 03:34:41;;;;;;;1999.90;999.90;;;9.70;99.90;;;;;;6281394;22;20348;-76
2023/12/29 03:37:07;;;;;;;1999.90;999.90;;;9.70;99.90;;;;;;6283500;22;20004;-77
2023/12/29 03:39:35;;;;;;;1999.90;999.90;;;9.70;99.90;;;;;;6283416;22;20011;-77
2023/12/29 03:42:01;;;;;;;1999.90;999.90;;;9.70;99.90;;;;;;6283428;22;20000;-77
2023/12/29 03:44:26;;;;;;;1999.90;999.90;;;9.70;99.90;;;;;;6282780;22;20008;-77
2023/12/29 03:46:52;;;;;;;1999.90;999.90;;;9.60;99.90;;;;;;6283283;22;20008;-77
2023/12/29 03:49:19;;;;;;;1999.90;999.90;;;9.60;99.90;;;;;;6283446;22;20000;-77
2023/12/29 03:51:45;;;;;;;1999.90;999.90;;;9.70;99.90;;;;;;6256091;22;20015;-76
2023/12/29 03:54:11;;;;;;;1999.90;999.90;;;9.70;99.90;;;;;;6282661;22;20083;-76
2023/12/29 03:56:37;;;;;;;1999.90;999.90;;;9.70;99.90;;;;;;6283405;22;20004;-77
2023/12/29 03:59:02;;;;;;;1999.90;999.90;;;9.70;99.90;;;;;;6255803;22;20454;-77
2023/12/29 04:01:28;;;;;;;1999.90;999.90;;;9.70;99.90;;;;;;6255959;22;20013;-77
2023/12/29 04:03:54;;;;;;;1999.90;999.90;;;9.70;99.90;;;;;;6282615;22;20012;-77
2023/12/29 04:06:19;;;;;;;1999.90;999.90;;;9.70;99.90;;;;;;6281608;22;20010;-76
2023/12/29 04:08:45;;;;;;;1999.90;999.90;;;9.70;99.90;;;;;;6256036;22;20015;-75
2023/12/29 04:11:11;;;;;;;1999.90;999.90;;;9.70;99.90;;;;;;6256180;22;20008;-77
2023/12/29 04:13:37;;;;;;;1999.90;999.90;;;9.80;99.90;;;;;;6280941;22;20012;-77
2023/12/29 04:16:02;;;;;;;1999.90;999.90;;;9.80;99.90;;;;;;6255522;22;20000;-77
2023/12/29 04:18:29;;;;;;;1999.90;999.90;;;9.70;99.90;;;;;;6255893;22;20012;-76
2023/12/29 04:20:54;;;;;;;1999.90;999.90;;;9.60;99.90;;;;;;6283363;22;20004;-76
2023/12/29 04:23:20;;;;;;;1999.90;999.90;;;9.60;99.90;;;;;;6255560;22;20089;-77
2023/12/29 04:25:46;;;;;;;1999.90;999.90;;;9.50;99.90;;;;;;6283324;22;20007;-77
2023/12/29 04:28:11;;;;;;;1999.90;999.90;;;9.50;99.90;;;;;;6255774;22;20015;-76
2023/12/29 04:30:37;;;;;;;1999.90;999.90;;;9.50;99.90;;;;;;6281486;22;20099;-77
2023/12/29 04:33:03;;;;;;;1999.90;999.90;;;9.50;99.90;;;;;;6255313;22;20395;-77
2023/12/29 04:35:28;;;;;;;1999.90;999.90;;;9.50;99.90;;;;;;6283256;22;20011;-77
2023/12/29 04:37:54;;;;;;;1999.90;999.90;;;9.50;99.90;;;;;;6283230;22;20035;-76
2023/12/29 04:40:19;;;;;;;1999.90;999.90;;;9.50;99.90;;;;;;6256019;22;20040;-77
2023/12/29 04:42:45;;;;;;;1999.90;999.90;;;9.50;99.90;;;;;;6282962;22;20082;-76
2023/12/29 04:45:11;;;;;;;1999.90;999.90;;;9.40;99.90;;;;;;6255776;22;20004;-77
2023/12/29 04:47:37;;;;;;;1999.90;999.90;;;9.40;99.90;;;;;;6255926;22;20501;-76
2023/12/29 04:50:03;;;;;;;1999.90;999.90;;;9.40;99.90;;;;;;6283752;22;20015;-77
2023/12/29 04:52:28;;;;;;;1999.90;999.90;;;9.50;99.90;;;;;;6282622;22;20119;-76
2023/12/29 04:54:54;;;;;;;1999.90;999.90;;;9.50;99.90;;;;;;6283171;22;20620;-76
2023/12/29 04:57:20;;;;;;;1999.90;999.90;;;9.50;99.90;;;;;;6283375;22;20012;-76
2023/12/29 04:59:45;;;;;;;1999.90;999.90;;;9.50;99.90;;;;;;6256595;22;20428;-76
2023/12/29 05:02:11;;;;;;;1999.90;999.90;;;9.40;99.90;;;;;;6284091;22;20020;-77
2023/12/29 05:04:37;;;;;;;1999.90;999.90;;;9.40;99.90;;;;;;6282619;22;20004;-77
2023/12/29 05:07:05;;;;;;;1999.90;999.90;;;9.40;99.90;;;;;;6255821;22;20000;-77
2023/12/29 05:09:31;;;;;;;1999.90;999.90;;;9.30;99.90;;;;;;6283068;22;20008;-76
2023/12/29 05:11:56;;;;;;;1999.90;999.90;;;9.30;99.90;;;;;;6255689;22;20008;-77
2023/12/29 05:14:22;;;;;;;1999.90;999.90;;;9.30;99.90;;;;;;6255146;22;20012;-76
2023/12/29 05:16:47;;;;;;;1999.90;999.90;;;9.30;99.90;;;;;;6255858;22;20143;-76
2023/12/29 05:19:13;;;;;;;1999.90;999.90;;;9.30;99.90;;;;;;6282865;22;20427;-77
2023/12/29 05:21:38;;;;;;;1999.90;999.90;;;9.30;99.90;;;;;;6282912;22;20386;-77
2023/12/29 05:24:05;;;;;;;1999.90;999.90;;;9.30;99.90;;;;;;6255317;22;20432;-76
2023/12/29 05:26:30;;;;;;;1999.90;999.90;;;9.30;99.90;;;;;;6280228;22;20066;-77
2023/12/29 05:28:56;;;;;;;1999.90;999.90;;;9.20;99.90;;;;;;6281349;22;20008;-77
2023/12/29 05:31:22;;;;;;;1999.90;999.90;;;9.20;99.90;;;;;;6255490;22;20352;-77
2023/12/29 05:33:47;;;;;;;1999.90;999.90;;;9.20;99.90;;;;;;6282300;22;20016;-77
2023/12/29 05:36:13;;;;;;;1999.90;999.90;;;9.10;99.90;;;;;;6282934;22;20012;-77
2023/12/29 05:38:40;;;;;;;1999.90;999.90;;;9.10;99.90;;;;;;6255775;22;20016;-76
2023/12/29 05:41:05;;;;;;;1999.90;999.90;;;9.10;99.90;;;;;;6282719;22;20005;-77
2023/12/29 05:43:32;;;;;;;1999.90;999.90;;;9.10;99.90;;;;;;6280666;22;20012;-76
2023/12/29 05:45:58;;;;;;;1999.90;999.90;;;9.00;99.90;;;;;;6283266;22;20006;-77
2023/12/29 05:48:24;;;;;;;1999.90;999.90;;;9.00;99.90;;;;;;6255465;22;20026;-77
2023/12/29 05:50:50;;;;;;;1999.90;999.90;;;8.90;99.90;;;;;;6282834;22;20004;-76
2023/12/29 05:53:16;;;;;;;1999.90;999.90;;;8.80;99.90;;;;;;6254643;22;20151;-77
2023/12/29 05:55:41;;;;;;;1999.90;999.90;;;8.80;99.90;;;;;;6282848;22;20075;-77
2023/12/29 05:58:07;;;;;;;1999.90;999.90;;;8.80;99.90;;;;;;6255630;22;20321;-77
2023/12/29 06:00:32;;;;;;;1999.90;999.90;;;8.70;99.90;;;;;;6255528;22;20334;-77
2023/12/29 06:02:59;;;;;;;1999.90;999.90;;;8.70;99.90;;;;;;6255363;22;20046;-77
2023/12/29 06:05:24;;;;;;;1999.90;999.90;;;8.70;99.90;;;;;;6282827;22;20004;-77
2023/12/29 06:07:50;;;;;;;1999.90;999.90;;;8.70;99.90;;;;;;6283193;22;20001;-77
2023/12/29 06:10:16;;;;;;;1999.90;999.90;;;8.70;99.90;;;;;;6282751;22;20043;-77
2023/12/29 06:12:41;;;;;;;1999.90;999.90;;;8.70;99.90;;;;;;6282083;22;20017;-77
2023/12/29 06:15:08;;;;;;;1999.90;999.90;;;8.70;99.90;;;;;;6255513;22;20454;-77
2023/12/29 06:17:35;;;;;;;1999.90;999.90;;;8.60;99.90;;;;;;6255729;22;20099;-78
2023/12/29 06:20:02;;;;;;;1999.90;999.90;;;8.50;99.90;;;;;;6255004;22;20013;-77
2023/12/29 06:22:27;;;;;;;1999.90;999.90;;;8.40;99.90;;;;;;6255054;22;20015;-77
2023/12/29 06:24:53;;;;;;;1999.90;999.90;;;8.30;99.90;;;;;;6282655;22;20000;-77
2023/12/29 06:27:18;;;;;;;1999.90;999.90;;;8.20;99.90;;;;;;6255383;22;20012;-76
2023/12/29 06:29:44;;;;;;;1999.90;999.90;;;8.20;99.90;;;;;;6282803;22;20008;-77
2023/12/29 06:32:10;;;;;;;1999.90;999.90;;;8.30;99.90;;;;;;6255296;22;20082;-77
2023/12/29 06:34:35;;;;;;;1999.90;999.90;;;8.30;99.90;;;;;;6255120;22;20016;-77
2023/12/29 06:37:01;;;;;;;1999.90;999.90;;;8.30;99.90;;;;;;6282778;22;20079;-77
2023/12/29 06:39:26;;;;;;;1999.90;999.90;;;8.30;99.90;;;;;;6256918;22;20083;-77
2023/12/29 06:41:52;;;;;;;1999.90;999.90;;;8.40;99.90;;;;;;6256789;22;20390;-77
2023/12/29 06:44:17;;;;;;;1999.90;999.90;;;8.40;99.90;;;;;;6256269;22;20474;-78
2023/12/29 06:46:43;;;;;;;1999.90;999.90;;;8.40;99.90;;;;;;6257217;22;20008;-77
2023/12/29 06:49:09;;;;;;;1999.90;999.90;;;8.40;99.90;;;;;;6284473;22;20012;-77
2023/12/29 06:51:35;;;;;;;1999.90;999.90;;;8.30;99.90;;;;;;6284644;22;20071;-77
2023/12/29 06:54:01;;;;;;;1999.90;999.90;;;8.30;99.90;;;;;;6256361;22;20024;-77
2023/12/29 06:56:29;;;;;;;1999.90;999.90;;;8.20;99.90;;;;;;6284697;22;20012;-78
2023/12/29 06:58:55;;;;;;;1999.90;999.90;;;8.10;99.90;;;;;;6284490;22;20448;-76
2023/12/29 07:01:20;;;;;;;1999.90;999.90;;;8.10;99.90;;;;;;6257347;22;20005;-79
2023/12/29 07:03:46;;;;;;;1999.90;999.90;;;8.20;99.90;;;;;;6256534;22;20011;-78
2023/12/29 07:06:12;;;;;;;1999.90;999.90;;;8.10;99.90;;;;;;6257378;22;20087;-78
2023/12/29 07:08:37;;;;;;;1999.90;999.90;;;8.00;99.90;;;;;;6257667;22;20023;-78
2023/12/29 07:11:03;;;;;;;1999.90;999.90;;;8.00;99.90;;;;;;6257586;22;20011;-77
2023/12/29 07:13:28;;;;;;;1999.90;999.90;;;8.00;99.90;;;;;;6283764;22;20012;-78
2023/12/29 07:15:54;;;;;;;1999.90;999.90;;;8.00;99.90;;;;;;6284387;22;20044;-78
2023/12/29 07:18:20;;;;;;;1999.90;999.90;;;8.00;99.90;;;;;;6256955;22;20016;-77
2023/12/29 07:20:45;;;;;;;1999.90;999.90;;;8.00;99.90;;;;;;6257126;22;20309;-78
2023/12/29 07:23:11;;;;;;;1999.90;999.90;;;8.00;99.90;;;;;;6256773;22;20008;-76
2023/12/29 07:25:36;;;;;;;1999.90;999.90;;;8.00;99.90;;;;;;6256835;22;20004;-77
2023/12/29 07:28:02;;;;;;;1999.90;999.90;;;7.90;99.90;;;;;;6284163;22;20016;-77
2023/12/29 07:30:27;;;;;;;1999.90;999.90;;;7.90;99.90;;;;;;6283945;22;20001;-77
2023/12/29 07:32:53;;;;;;;1999.90;999.90;;;7.80;99.90;;;;;;6283472;22;20373;-78
2023/12/29 07:35:19;;;;;;;1999.90;999.90;;;7.80;99.90;;;;;;6256918;22;20077;-77
2023/12/29 07:37:48;;;;;;;1999.90;999.90;;;7.80;99.90;;;;;;6284343;22;20811;-77
2023/12/29 07:40:17;;;;;;;1999.90;999.90;;;7.90;99.90;;;;;;6256433;22;20004;-77
2023/12/29 07:42:46;;;;;;;1999.90;999.90;;;8.10;99.90;;;;;;6255498;22;20120;-77
2023/12/29 07:45:12;;;;;;;1999.90;999.90;;;8.20;99.90;;;;;;6284298;22;20082;-78
2023/12/29 07:47:37;;;;;;;1999.90;999.90;;;8.40;99.90;;;;;;6284229;22;20032;-78
2023/12/29 07:50:04;;;;;;;1999.90;999.90;;;8.50;99.90;;;;;;6284132;22;20004;-78
2023/12/29 07:52:30;;;;;;;1999.90;999.90;;;8.50;99.90;;;;;;6284132;22;20008;-78
2023/12/29 07:54:56;;;;;;;1999.90;999.90;;;8.50;99.90;;;;;;6284087;22;20004;-78
2023/12/29 07:57:21;;;;;;;1999.90;999.90;;;8.50;99.90;;;;;;6284854;22;20017;-79
2023/12/29 07:59:47;;;;;;;1999.90;999.90;;;8.60;99.90;;;;;;6284326;22;20008;-79
2023/12/29 08:02:12;;;;;;;1999.90;999.90;;;8.60;99.90;;;;;;6284541;22;20011;-78
2023/12/29 08:04:38;;;;;;;1999.90;999.90;;;8.70;99.90;;;;;;6256877;22;20048;-78
2023/12/29 08:07:04;;;;;;;1999.90;999.90;;;8.80;99.90;;;;;;6285059;22;20499;-78
2023/12/29 08:09:30;;;;;;;1999.90;999.90;;;8.90;99.90;;;;;;6256898;22;20008;-77
2023/12/29 08:11:55;;;;;;;1999.90;999.90;;;8.80;99.90;;;;;;6283428;22;20015;-78
2023/12/29 08:14:22;;;;;;;1999.90;999.90;;;8.90;99.90;;;;;;6257165;22;20436;-80
2023/12/29 08:16:47;;;;;;;1999.90;999.90;;;8.90;99.90;;;;;;6286074;22;20012;-83
2023/12/29 08:19:15;;;;;;;1999.90;999.90;;;9.00;99.90;;;;;;6258000;22;20019;-81
2023/12/29 08:21:40;;;;;;;1999.90;999.90;;;9.00;99.90;;;;;;6258698;22;20004;-79
2023/12/29 08:24:06;;;;;;;1999.90;999.90;;;9.10;99.90;;;;;;6256991;22;20443;-81
2023/12/29 08:26:31;;;;;;;1999.90;999.90;;;9.10;99.90;;;;;;6283112;22;20054;-80
2023/12/29 08:28:57;;;;;;;1999.90;999.90;;;9.10;99.90;;;;;;6260291;22;20391;-78
2023/12/29 08:31:23;;;;;;;1999.90;999.90;;;9.10;99.90;;;;;;6285685;22;20004;-78
2023/12/29 08:33:48;;;;;;;1999.90;999.90;;;9.10;99.90;;;;;;6285009;22;20013;-78
2023/12/29 08:36:17;;;;;;;1999.90;999.90;;;9.20;99.90;;;;;;6259025;22;20015;-76
2023/12/29 08:38:43;;;;;;;1999.90;999.90;;;9.20;99.90;;;;;;6284912;22;20004;-78
2023/12/29 08:41:13;;;;;;;1999.90;999.90;;;9.10;99.90;;;;;;6257989;22;20098;-76
2023/12/29 08:43:38;;;;;;;1999.90;999.90;;;9.10;99.90;;;;;;6258006;22;20327;-79
2023/12/29 08:46:04;;;;;;;1999.90;999.90;;;9.00;99.90;;;;;;6262695;22;20014;-77
2023/12/29 08:48:29;;;;;;;1999.90;999.90;;;9.00;99.90;;;;;;6288028;22;20019;-80
2023/12/29 08:50:55;;;;;;;1999.90;999.90;;;9.00;99.90;;;;;;6260249;22;20313;-84
2023/12/29 08:53:20;;;;;;;1999.90;999.90;;;9.00;99.90;;;;;;6263074;22;20043;-76
2023/12/29 08:55:46;;;;;;;1999.90;999.90;;;9.10;99.90;;;;;;6320787;22;20012;-81
2023/12/29 08:58:12;;;;;;;1999.90;999.90;;;9.10;99.90;;;;;;6292465;22;20082;-82
2023/12/29 09:00:38;;;;;;;1999.90;999.90;;;9.00;99.90;;;;;;6322666;22;20004;-81
2023/12/29 09:03:03;;;;;;;1999.90;999.90;;;9.00;99.90;;;;;;6288837;22;20439;-78
2023/12/29 09:05:29;;;;;;;1999.90;999.90;;;9.00;99.90;;;;;;6295026;22;20008;-81
2023/12/29 09:07:55;;;;;;;1999.90;999.90;;;9.00;99.90;;;;;;6294629;22;20072;-80
2023/12/29 09:10:21;;;;;;;1999.90;999.90;;;9.30;99.90;;;;;;6269314;22;20068;-81
2023/12/29 09:12:46;;;;;;;1999.90;999.90;;;9.30;99.90;;;;;;6262934;22;20016;-77
2023/12/29 09:15:12;;;;;;;1999.90;999.90;;;9.50;99.90;;;;;;6283994;22;20335;-76
2023/12/29 09:17:38;;;;;;;1999.90;999.90;;;9.50;99.90;;;;;;6255790;22;20012;-76
2023/12/29 09:20:03;;;;;;;1999.90;999.90;;;9.60;99.90;;;;;;6286440;22;20004;-78
2023/12/29 09:22:29;;;;;;;1999.90;999.90;;;9.60;99.90;;;;;;6264075;22;20012;-76
2023/12/29 09:24:55;;;;;;;1999.90;999.90;;;9.60;99.90;;;;;;6310213;22;20000;-78
2023/12/29 09:27:21;;;;;;;1999.90;999.90;;;9.60;99.90;;;;;;6292637;22;20012;-77
2023/12/29 09:29:47;;;;;;;1999.90;999.90;;;9.60;99.90;;;;;;6259472;22;20050;-80
2023/12/29 09:32:12;;;;;;;1999.90;999.90;;;9.70;99.90;;;;;;6287310;22;20012;-81
2023/12/29 09:34:38;;;;;;;1999.90;999.90;;;9.70;99.90;;;;;;6286644;22;20019;-83
2023/12/29 09:37:04;;;;;;;1999.90;999.90;;;9.60;99.90;;;;;;6263065;22;20459;-87
2023/12/29 09:39:30;;;;;;;1999.90;999.90;;;9.80;99.90;;;;;;6264258;22;20015;-82
2023/12/29 09:42:01;;;;;;;1999.90;999.90;;;9.90;99.90;;;;;;6262014;22;20150;-83
2023/12/29 09:44:30;;;;;;;1999.90;999.90;;;9.90;99.90;;;;;;6259938;22;20092;-84
2023/12/29 09:47:03;;;;;;;1999.90;999.90;;;9.90;99.90;;;;;;6288900;22;20352;-83
2023/12/29 09:49:47;;;;;;;1999.90;999.90;;;10.00;99.90;;;;;;6287730;22;20008;-78
2023/12/29 09:52:15;;;;;;;1999.90;999.90;;;10.00;99.90;;;;;;6263053;22;20873;-81
2023/12/29 09:54:42;;;;;;;1999.90;999.90;;;10.10;99.90;;;;;;6260501;22;20020;-81
2023/12/29 09:57:08;;;;;;;1999.90;999.90;;;10.00;99.90;;;;;;6261468;22;20079;-81
2023/12/29 09:59:40;;;;;;;1999.90;999.90;;;10.10;99.90;;;;;;6258206;22;20007;-81
2023/12/29 10:02:14;;;;;;;1999.90;999.90;;;10.10;99.90;;;;;;6286008;22;20006;-80
2023/12/29 10:04:39;;;;;;;1999.90;999.90;;;10.10;99.90;;;;;;6255904;22;20008;-79
2023/12/29 10:07:07;;;;;;;1999.90;999.90;;;10.10;99.90;;;;;;6256350;22;20004;-79
2023/12/29 10:09:34;;;;;;;1999.90;999.90;;;10.20;99.90;;;;;;6256640;22;20352;-79
2023/12/29 10:12:03;;;;;;;1999.90;999.90;;;10.30;99.90;;;;;;6284440;22;20009;-81
2023/12/29 10:14:53;;;;;;;1999.90;999.90;;;10.50;99.90;;;;;;6257454;22;20026;-81
2023/12/29 10:17:35;;;;;;;1999.90;999.90;;;10.50;99.90;;;;;;6257819;22;20064;-79
2023/12/29 10:20:27;;;;;;;1999.90;999.90;;;10.60;99.90;;;;;;6285453;22;20008;-78
2023/12/29 10:22:59;;;;;;;1999.90;999.90;;;10.70;99.90;;;;;;6255924;22;20004;-78
2023/12/29 10:25:24;;;;;;;1999.90;999.90;;;10.80;99.90;;;;;;6286628;22;20008;-79
2023/12/29 10:27:51;;;;;;;1999.90;999.90;;;10.80;99.90;;;;;;6285162;22;20008;-79
2023/12/29 10:30:18;;;;;;;1999.90;999.90;;;11.00;99.90;;;;;;6257087;22;20091;-78
2023/12/29 10:32:48;;;;;;;1999.90;999.90;;;11.00;99.90;;;;;;6285107;22;20008;-79
2023/12/29 10:35:14;;;;;;;1999.90;999.90;;;11.10;99.90;;;;;;6285241;22;20415;-80
2023/12/29 10:37:40;;;;;;;1999.90;999.90;;;11.30;99.90;;;;;;6285916;22;20004;-80
2023/12/29 10:40:07;;;;;;;1999.90;999.90;;;11.30;99.90;;;;;;6284920;22;20043;-79
2023/12/29 10:42:33;;;;;;;1999.90;999.90;;;11.40;99.90;;;;;;6285603;22;20063;-80
2023/12/29 10:45:06;;;;;;;1999.90;999.90;;;11.50;99.90;;;;;;6284695;22;20475;-80
2023/12/29 10:47:33;;;;;;;1999.90;999.90;;;11.50;99.90;;;;;;6285369;22;20008;-80
2023/12/29 10:50:00;;;;;;;1999.90;999.90;;;11.80;99.90;;;;;;6285541;22;20013;-79
2023/12/29 10:52:25;;;;;;;1999.90;999.90;;;11.80;99.90;;;;;;6284683;22;20455;-80
2023/12/29 10:55:04;;;;;;;1999.90;999.90;;;11.60;99.90;;;;;;6284760;22;20058;-79
2023/12/29 10:57:30;;;;;;;1999.90;999.90;;;11.60;99.90;;;;;;6257578;22;20011;-79
2023/12/29 10:59:56;;;;;;;1999.90;999.90;;;11.50;99.90;;;;;;6258974;22;20008;-83
2023/12/29 11:02:21;;;;;;;1999.90;999.90;;;11.60;99.90;;;;;;6260193;22;20394;-78
2023/12/29 11:04:47;;;;;;;1999.90;999.90;;;11.80;99.90;;;;;;6285922;22;20012;-79
2023/12/29 11:07:13;;;;;;;1999.90;999.90;;;11.80;99.90;;;;;;6286512;22;20011;-79
2023/12/29 11:09:39;;;;;;;1999.90;999.90;;;11.80;99.90;;;;;;6257415;22;20009;-79
2023/12/29 11:12:08;;;;;;;1999.90;999.90;;;11.70;99.90;;;;;;6286236;22;20075;-78
2023/12/29 11:14:34;;;;;;;1999.90;999.90;;;11.60;99.90;;;;;;6282963;22;20012;-78
2023/12/29 11:17:00;;;;;;;1999.90;999.90;;;11.60;99.90;;;;;;6284605;22;20001;-78
2023/12/29 11:19:27;;;;;;;1999.90;999.90;;;11.50;99.90;;;;;;6284374;22;20012;-78
2023/12/29 11:21:55;;;;;;;1999.90;999.90;;;11.50;99.90;;;;;;6259672;22;20004;-78
2023/12/29 11:24:22;;;;;;;1999.90;999.90;;;11.50;99.90;;;;;;6285943;22;20013;-77
2023/12/29 11:26:49;;;;;;;1999.90;999.90;;;11.50;99.90;;;;;;6292057;22;20011;-79
2023/12/29 11:29:16;;;;;;;1999.90;999.90;;;11.50;99.90;;;;;;6265521;22;20064;-78
2023/12/29 11:31:42;;;;;;;1999.90;999.90;;;11.50;99.90;;;;;;6278401;22;20008;-79
2023/12/29 11:34:33;;;;;;;1999.90;999.90;;;11.60;99.90;;;;;;6285264;22;20039;-82
2023/12/29 11:37:26;;;;;;;1999.90;999.90;;;11.50;99.90;;;;;;6287072;22;20004;-79
2023/12/29 11:40:09;;;;;;;1999.90;999.90;;;11.50;99.90;;;;;;6257444;22;20012;-80
2023/12/29 11:42:40;;;;;;;1999.90;999.90;;;11.50;99.90;;;;;;6258338;22;20065;-79
2023/12/29 11:45:35;;;;;;;1999.90;999.90;;;11.50;99.90;;;;;;6286465;22;20015;-77
2023/12/29 11:48:04;;;;;;;1999.90;999.90;;;11.50;99.90;;;;;;6266925;22;20011;-78
2023/12/29 11:50:31;;;;;;;1999.90;999.90;;;11.50;99.90;;;;;;6287023;22;20511;-80
2023/12/29 11:52:57;;;;;;;1999.90;999.90;;;11.60;99.90;;;;;;6289909;22;20009;-82
2023/12/29 11:55:30;;;;;;;1999.90;999.90;;;11.70;99.90;;;;;;6262474;22;20016;-81
2023/12/29 11:57:56;;;;;;;1999.90;999.90;;;11.80;99.90;;;;;;6261718;22;20012;-80
2023/12/29 12:00:41;;;;;;;1999.90;999.90;;;12.00;99.90;;;;;;6289398;22;20007;-78
2023/12/29 12:03:27;;;;;;;1999.90;999.90;;;12.10;99.90;;;;;;6259922;22;20016;-84
2023/12/29 12:05:54;;;;;;;1999.90;999.90;;;12.20;99.90;;;;;;6263905;22;20015;-78